Terminal Aerodrome Forecast
Issued by NWS

Home | Current Version | Previous Version | Text Only | Print | Product List | Glossary On
Versions: 1 2 3 4 5 6 7 8 9 10 11 12 13 14 15 16
000
FTUS44 KLUB 041120
TAFCDS
TAF
KCDS 041120Z 0412/0512 04013KT P6SM OVC015
     FM041500 02018KT 4SM -FZRAPLSN BR OVC007
     FM050000 01011KT P6SM OVC025=

USA.gov is the U.S. government's official web portal to all federal, state and local government web resources and services.